Gotska Sandon, Sweden

1:43 PM CET on December 10, 2016 (GMT +0100)
Visby | | Change Station

Elev 154 ft 57.66 °N, 18.35 °E | Updated 23 minutes ago

Snow
Snow
37 °F
Feels Like 30 °F
N
12
Wind Variable Wind from SE

Today
High -- | Low -- °F
--% Chance of Precip.
Yesterday
High -- | Low -- °F
Precip. -- in
Pressure 29.77 in
Visibility 1.4 miles
Clouds Overcast 400 ft
Windchill 30 °F
Dew Point 37 °F
Humidity 100%
Rainfall 0.00 in
Snow Depth Not available.
8:20 AM 2:51 PM
Waxing Gibbous, 83% visible
METAR ESSV 101220Z 13010KT 2200 -SNRA OVC004 03/03 Q1008 R21/29//81
Pressure 29.77 in
Visibility 1.4 miles
Clouds Overcast 400 ft
Windchill 30 °F
Dew Point 37 °F
Humidity 100%
Rainfall 0.00 in
Snow Depth Not available.
8:20 AM 2:51 PM
Waxing Gibbous, 83% visible
METAR ESSV 101220Z 13010KT 2200 -SNRA OVC004 03/03 Q1008 R21/29//81

10-Day Weather Forecast

×

Almanac

Astronomy

Dec. 10, 2016 Rise Set
Actual Time
Civil Twilight
Nautical Twilight
Astronomical Twilight
Moon
Length of Visible Light
Length of Day
Tomorrow will be .
, % of the Moon is Illuminated

Today's Extremes

Country Highs Country Lows

Community

WunderPhotos

Upload Photos

1,956,540 photos uploaded!

WunderBlog® & News

Nearby

Air Quality

  Air Quality AQ Index Pollutant
Not available.

Snow Depth

Station Depth Elevation

Earthquake Activity

City Distance Mag. Time & Date
Minimum magnitude displayed is 2.5.

Coastal Water Temperatures

Place Temperature

Stations

Nearby Weather Stations

Station Location Temp. Windchill Dew Point Humidity Wind Precip. Elev Updated Type